createdAt,value
2022-12-08T00:02:02.996Z,2.88
2022-12-08T00:04:51.233Z,1.92
2022-12-08T00:07:38.481Z,1.45
2022-12-08T00:10:39.543Z,3.33
2022-12-08T00:12:56.812Z,2.03
2022-12-08T00:15:24.982Z,1.00
2022-12-08T00:17:53.953Z,2.25
2022-12-08T00:20:22.027Z,1.92
2022-12-08T00:22:51.737Z,0.98
2022-12-08T00:27:48.019Z,0.68
2022-12-08T00:30:16.200Z,3.05
2022-12-08T00:32:44.508Z,1.92
2022-12-08T00:35:12.566Z,1.02
2022-12-08T00:37:40.921Z,1.40
2022-12-08T00:40:11.362Z,0.77
2022-12-08T00:42:39.707Z,2.38
2022-12-08T00:45:08.780Z,0.98
2022-12-08T00:47:37.081Z,1.63
2022-12-08T00:50:06.154Z,2.20
2022-12-08T00:55:02.560Z,1.15
2022-12-08T00:57:32.691Z,2.40
2022-12-08T01:00:00.838Z,1.92
2022-12-08T01:02:29.277Z,1.37
2022-12-08T01:04:57.310Z,1.02
2022-12-08T01:07:25.631Z,0.95
2022-12-08T01:09:53.741Z,2.63
2022-12-08T01:12:22.086Z,1.05
2022-12-08T01:14:51.549Z,1.70
2022-12-08T01:17:19.887Z,1.08
2022-12-08T01:19:47.988Z,1.40
2022-12-08T01:22:16.524Z,1.17
2022-12-08T01:24:44.959Z,3.13
2022-12-08T01:27:13.297Z,1.77
2022-12-08T01:29:41.349Z,0.82
2022-12-08T01:32:11.058Z,1.83
2022-12-08T01:37:07.388Z,1.60
2022-12-08T01:39:36.461Z,1.13
2022-12-08T01:42:05.097Z,1.58
2022-12-08T01:44:59.727Z,0.60
2022-12-08T01:47:35.669Z,3.65
2022-12-08T01:50:06.974Z,0.75
2022-12-08T01:52:39.287Z,1.35
2022-12-08T01:55:12.702Z,0.70
2022-12-08T01:57:45.994Z,1.00
2022-12-08T02:00:16.593Z,1.02
2022-12-08T02:02:54.491Z,0.40
2022-12-08T02:05:25.708Z,0.50
2022-12-08T02:07:55.718Z,0.73
2022-12-08T02:10:26.491Z,2.20
2022-12-08T02:12:57.589Z,2.15
2022-12-08T02:15:34.894Z,2.10
2022-12-08T02:18:16.541Z,0.63
2022-12-08T02:20:54.913Z,1.42
2022-12-08T02:23:32.904Z,1.10
2022-12-08T02:26:39.609Z,1.95
2022-12-08T02:29:32.104Z,1.23
2022-12-08T02:32:21.839Z,1.23
2022-12-08T02:34:58.679Z,1.40
2022-12-08T02:37:32.666Z,4.72
2022-12-08T02:40:08.849Z,1.25
2022-12-08T02:42:42.110Z,1.80
2022-12-08T02:45:16.084Z,0.90
2022-12-08T02:47:45.123Z,2.28
2022-12-08T02:50:16.249Z,1.48
2022-12-08T02:52:46.915Z,2.30
2022-12-08T02:55:29.273Z,0.85
2022-12-08T02:58:20.175Z,2.40
2022-12-08T03:01:02.399Z,1.98
2022-12-08T03:03:39.091Z,2.03
2022-12-08T03:06:20.035Z,1.08
2022-12-08T03:08:56.283Z,0.95
2022-12-08T03:11:31.846Z,0.70
2022-12-08T03:14:02.726Z,0.70
2022-12-08T03:16:34.765Z,0.65
2022-12-08T03:19:08.939Z,3.30
2022-12-08T03:21:40.274Z,0.40
2022-12-08T03:24:11.087Z,0.85
2022-12-08T03:26:45.155Z,0.80
2022-12-08T03:29:14.277Z,2.10
2022-12-08T03:34:15.175Z,1.23
2022-12-08T03:36:46.585Z,0.52
2022-12-08T03:39:14.867Z,1.17
2022-12-08T03:41:43.343Z,0.88
2022-12-08T03:44:11.376Z,0.70
2022-12-08T03:46:39.841Z,0.55
2022-12-08T03:49:07.872Z,1.02
2022-12-08T03:51:36.576Z,1.20
2022-12-08T03:54:06.130Z,1.42
2022-12-08T03:56:36.813Z,1.45
2022-12-08T03:59:09.113Z,1.08
2022-12-08T04:01:37.576Z,1.10
2022-12-08T04:04:05.926Z,0.60
2022-12-08T04:06:34.420Z,0.75
2022-12-08T04:09:02.533Z,1.30
2022-12-08T04:11:32.282Z,0.40
2022-12-08T04:16:28.817Z,0.38
2022-12-08T04:18:57.099Z,0.85
2022-12-08T04:21:25.497Z,0.45
2022-12-08T04:23:59.190Z,1.20
2022-12-08T04:26:29.642Z,0.50
2022-12-08T04:28:59.077Z,0.60
2022-12-08T04:31:27.493Z,1.58
2022-12-08T04:33:55.569Z,0.50
2022-12-08T04:36:23.890Z,0.98
2022-12-08T04:38:52.151Z,0.57
2022-12-08T04:41:20.472Z,0.40
2022-12-08T04:43:48.535Z,0.28
2022-12-08T04:46:18.356Z,0.90
2022-12-08T04:51:18.092Z,0.38
2022-12-08T04:53:47.220Z,0.40
2022-12-08T04:58:44.151Z,0.40
2022-12-08T05:01:12.959Z,0.30
2022-12-08T05:03:42.676Z,0.40
2022-12-08T05:06:13.521Z,1.83
2022-12-08T05:08:41.671Z,0.50
2022-12-08T05:11:11.578Z,0.40
2022-12-08T05:13:39.634Z,1.42
2022-12-08T05:16:10.163Z,0.63
2022-12-08T05:18:39.643Z,0.80
2022-12-08T05:21:10.338Z,1.70
2022-12-08T05:23:38.584Z,2.45
2022-12-08T05:26:07.425Z,1.67
2022-12-08T05:28:43.787Z,0.82
2022-12-08T05:31:13.232Z,2.42
2022-12-08T05:33:41.886Z,1.25
2022-12-08T05:36:13.603Z,1.50
2022-12-08T05:38:41.806Z,0.95
2022-12-08T05:41:10.928Z,0.50
2022-12-08T05:43:39.022Z,1.40
2022-12-08T05:46:09.456Z,1.08
2022-12-08T05:48:37.795Z,0.60
2022-12-08T05:51:09.348Z,2.00
2022-12-08T05:53:38.843Z,2.25
2022-12-08T05:56:07.658Z,2.15
2022-12-08T05:58:35.700Z,1.73
2022-12-08T06:01:04.219Z,0.95
2022-12-08T06:03:32.503Z,1.38
2022-12-08T06:06:00.877Z,0.80
2022-12-08T06:08:29.073Z,0.70
2022-12-08T06:10:59.208Z,1.50
2022-12-08T06:13:27.256Z,3.83
2022-12-08T06:15:56.048Z,0.75
2022-12-08T06:18:28.329Z,1.27
2022-12-08T06:21:04.181Z,2.47
2022-12-08T06:23:32.680Z,0.73
2022-12-08T06:26:06.243Z,3.45
2022-12-08T06:28:34.606Z,1.65
2022-12-08T06:31:08.661Z,1.45
2022-12-08T06:33:36.782Z,1.98
2022-12-08T06:36:05.432Z,4.07
2022-12-08T06:38:33.809Z,1.75
2022-12-08T06:41:02.583Z,1.10
2022-12-08T06:43:32.007Z,3.50
2022-12-08T06:46:00.598Z,0.60
2022-12-08T06:48:28.742Z,1.38
2022-12-08T06:50:57.177Z,1.40
2022-12-08T06:53:25.223Z,1.75
2022-12-08T06:56:01.806Z,1.45
2022-12-08T06:58:31.297Z,1.80
2022-12-08T07:01:04.799Z,2.63
2022-12-08T07:03:33.081Z,1.58
2022-12-08T07:06:04.219Z,2.87
2022-12-08T07:08:33.308Z,1.15
2022-12-08T07:11:07.902Z,1.75
2022-12-08T07:13:37.575Z,1.05
2022-12-08T07:16:09.903Z,2.67
2022-12-08T07:18:39.067Z,1.55
2022-12-08T07:21:09.486Z,3.30
2022-12-08T07:23:38.305Z,2.25
2022-12-08T07:26:09.546Z,2.03
2022-12-08T07:28:41.119Z,1.88
2022-12-08T07:31:17.622Z,3.13
2022-12-08T07:33:45.966Z,2.72
2022-12-08T07:36:14.355Z,1.13
2022-12-08T07:38:43.033Z,1.38
2022-12-08T07:41:15.029Z,2.28
2022-12-08T07:43:44.621Z,4.00
2022-12-08T07:46:13.656Z,2.88
2022-12-08T07:48:42.130Z,2.08
2022-12-08T07:51:12.946Z,2.97
2022-12-08T07:53:42.786Z,1.13
2022-12-08T07:56:13.509Z,4.07
2022-12-08T07:58:42.208Z,2.45
2022-12-08T08:01:24.463Z,2.25
2022-12-08T08:03:52.938Z,1.35
2022-12-08T08:06:21.432Z,1.88
2022-12-08T08:08:49.514Z,3.28
2022-12-08T08:11:21.189Z,6.07
2022-12-08T08:13:50.651Z,2.25
2022-12-08T08:16:21.065Z,1.38
2022-12-08T08:18:50.729Z,1.98
2022-12-08T08:24:08.633Z,2.08
2022-12-08T08:26:38.376Z,1.85
2022-12-08T08:31:35.978Z,2.17
2022-12-08T08:34:06.488Z,2.67
2022-12-08T08:36:35.058Z,2.45
2022-12-08T08:39:03.163Z,2.63
2022-12-08T08:41:31.525Z,2.17
2022-12-08T08:43:59.554Z,5.00
2022-12-08T08:46:28.322Z,1.35
2022-12-08T08:48:57.773Z,2.70
2022-12-08T08:51:26.280Z,1.70
2022-12-08T08:53:54.297Z,3.10
2022-12-08T08:56:22.820Z,2.38
2022-12-08T08:58:51.991Z,5.07
2022-12-08T09:03:49.910Z,4.03
2022-12-08T09:06:20.605Z,4.15
2022-12-08T09:08:49.273Z,2.72
2022-12-08T09:11:19.377Z,3.92
2022-12-08T09:13:49.438Z,3.33
2022-12-08T09:16:18.668Z,4.75
2022-12-08T09:18:48.402Z,4.47
2022-12-08T09:21:22.739Z,4.78
2022-12-08T09:23:52.447Z,5.32
2022-12-08T09:28:51.051Z,4.60
2022-12-08T09:31:20.650Z,6.85
2022-12-08T09:33:51.554Z,5.00
2022-12-08T09:36:22.115Z,4.72
2022-12-08T09:38:51.189Z,4.78
2022-12-08T09:41:35.961Z,6.57
2022-12-08T09:44:36.108Z,7.90
2022-12-08T09:47:14.289Z,4.82
2022-12-08T09:49:47.444Z,8.07
2022-12-08T09:52:24.289Z,8.00
2022-12-08T09:54:52.408Z,9.25
2022-12-08T09:57:24.844Z,7.35
2022-12-08T09:59:58.722Z,9.18
2022-12-08T10:02:30.740Z,7.32
2022-12-08T10:05:00.302Z,7.97
2022-12-08T10:07:39.256Z,9.05
2022-12-08T10:10:22.356Z,7.40
2022-12-08T10:12:56.227Z,9.30
2022-12-08T10:15:45.484Z,10.45
2022-12-08T10:18:24.324Z,8.90
2022-12-08T10:20:53.471Z,7.82
2022-12-08T10:23:33.030Z,10.95
2022-12-08T10:26:04.160Z,8.30
2022-12-08T10:28:34.416Z,10.20
2022-12-08T10:31:02.575Z,9.30
2022-12-08T10:33:33.578Z,6.72
2022-12-08T10:36:04.684Z,7.13
2022-12-08T10:38:36.251Z,7.65
2022-12-08T10:41:08.417Z,6.72
2022-12-08T10:43:39.540Z,8.68
2022-12-08T10:46:13.691Z,7.28
2022-12-08T10:48:50.486Z,8.57
2022-12-08T10:51:29.813Z,11.88
2022-12-08T10:53:59.592Z,9.15
2022-12-08T10:59:15.558Z,11.00
2022-12-08T11:01:48.129Z,8.82
2022-12-08T11:04:19.927Z,11.30
2022-12-08T11:06:49.602Z,11.77
2022-12-08T11:09:37.105Z,9.55
2022-12-08T11:12:09.927Z,11.40
2022-12-08T11:14:49.785Z,8.90
2022-12-08T11:17:25.433Z,15.10
2022-12-08T11:19:59.487Z,10.07
2022-12-08T11:22:32.275Z,7.97
2022-12-08T11:25:10.676Z,9.25
2022-12-08T11:27:40.648Z,7.80
2022-12-08T11:30:16.301Z,8.25
2022-12-08T11:32:46.562Z,6.93
2022-12-08T11:35:22.339Z,7.88
2022-12-08T11:37:50.527Z,5.72
2022-12-08T11:40:25.882Z,8.00
2022-12-08T11:43:03.470Z,10.02
2022-12-08T11:45:36.245Z,6.35
2022-12-08T11:48:11.957Z,8.82
2022-12-08T11:50:46.560Z,6.95
2022-12-08T11:53:20.672Z,8.77
2022-12-08T11:55:53.483Z,10.48
2022-12-08T11:58:28.242Z,8.15
2022-12-08T12:00:56.726Z,10.07
2022-12-08T12:03:31.512Z,9.73
2022-12-08T12:06:54.107Z,11.02
2022-12-08T12:09:30.765Z,11.77
2022-12-08T12:12:17.083Z,9.60
2022-12-08T12:15:18.523Z,7.95
2022-12-08T12:17:50.436Z,8.50
2022-12-08T12:20:22.575Z,7.38
2022-12-08T12:22:57.272Z,8.07
2022-12-08T12:25:28.102Z,5.78
2022-12-08T12:28:03.637Z,4.40
2022-12-08T12:30:51.159Z,6.20
2022-12-08T12:33:20.805Z,4.35
2022-12-08T12:35:49.835Z,2.92
2022-12-08T12:38:41.782Z,3.60
2022-12-08T12:41:12.002Z,4.35
2022-12-08T12:44:01.944Z,4.70
2022-12-08T12:46:54.409Z,5.00
2022-12-08T12:50:16.379Z,6.00
2022-12-08T12:52:48.681Z,9.43
2022-12-08T12:55:45.877Z,9.00
2022-12-08T12:58:40.955Z,7.45
2022-12-08T13:01:52.050Z,8.52
2022-12-08T13:04:29.811Z,12.23
2022-12-08T13:06:58.517Z,7.18
2022-12-08T13:09:33.755Z,10.20
2022-12-08T13:12:10.599Z,7.85
2022-12-08T13:14:46.749Z,9.65
2022-12-08T13:17:21.562Z,11.65
2022-12-08T13:19:55.602Z,14.23
2022-12-08T13:22:58.994Z,11.05
2022-12-08T13:25:53.792Z,16.88
2022-12-08T13:28:25.721Z,11.13
2022-12-08T13:30:55.439Z,13.27
2022-12-08T13:33:32.721Z,13.27
2022-12-08T13:36:27.397Z,11.07
2022-12-08T13:38:58.955Z,12.77
2022-12-08T13:41:36.950Z,10.82
2022-12-08T13:45:18.076Z,11.65
2022-12-08T13:47:32.094Z,14.02
2022-12-08T13:58:34.815Z,13.45
2022-12-08T14:01:08.535Z,12.05
2022-12-08T14:04:12.472Z,13.38
2022-12-08T14:06:39.015Z,13.20
2022-12-08T14:09:13.213Z,15.57
2022-12-08T14:11:44.424Z,14.20
2022-12-08T14:14:32.658Z,16.55
2022-12-08T14:17:07.637Z,13.82
2022-12-08T14:19:36.398Z,15.77
2022-12-08T14:22:12.992Z,15.45
2022-12-08T14:24:50.193Z,16.92
2022-12-08T14:27:21.609Z,20.05
2022-12-08T14:29:52.391Z,24.45
2022-12-08T14:32:27.964Z,29.90
2022-12-08T14:34:59.131Z,30.77
2022-12-08T14:37:29.532Z,23.85
2022-12-08T14:40:04.079Z,29.13
2022-12-08T14:42:43.040Z,32.22
2022-12-08T14:45:13.644Z,25.40
2022-12-08T14:47:42.682Z,33.78
2022-12-08T14:50:39.358Z,23.85
2022-12-08T14:53:15.304Z,31.98
2022-12-08T14:55:47.661Z,28.33
2022-12-08T14:58:22.217Z,33.10
2022-12-08T15:00:54.508Z,34.55
2022-12-08T15:03:23.955Z,36.83
2022-12-08T15:05:53.923Z,36.80
2022-12-08T15:08:22.346Z,44.03
2022-12-08T15:11:20.070Z,37.30
2022-12-08T15:13:50.764Z,39.97
2022-12-08T15:16:27.858Z,35.90
2022-12-08T15:19:08.053Z,39.13
2022-12-08T15:21:39.983Z,39.05
2022-12-08T15:24:12.745Z,35.58
2022-12-08T15:26:46.493Z,36.55
2022-12-08T15:29:20.757Z,41.90
2022-12-08T15:31:49.167Z,41.85
2022-12-08T15:34:17.564Z,48.92
2022-12-08T15:36:47.425Z,45.53
2022-12-08T15:39:23.825Z,38.80
2022-12-08T15:41:53.786Z,44.75
2022-12-08T15:44:22.878Z,50.83
2022-12-08T15:46:51.060Z,62.53
2022-12-08T15:49:21.267Z,64.70
2022-12-08T15:51:49.725Z,65.95
2022-12-08T15:54:18.050Z,55.70
2022-12-08T15:57:18.162Z,49.35
2022-12-08T15:59:39.253Z,50.58
2022-12-08T16:07:27.584Z,46.65
2022-12-08T16:09:57.180Z,50.05
2022-12-08T16:15:51.712Z,44.13
2022-12-08T16:18:24.681Z,53.77
2022-12-08T16:23:43.595Z,51.05
2022-12-08T16:29:05.752Z,47.88
2022-12-08T16:31:35.606Z,46.92
2022-12-08T16:34:03.757Z,51.65
2022-12-08T16:36:32.184Z,50.85
2022-12-08T16:39:00.695Z,49.90
2022-12-08T16:41:46.590Z,49.75
2022-12-08T16:44:14.992Z,46.25
2022-12-08T16:46:44.711Z,51.38
2022-12-08T16:51:43.319Z,44.33
2022-12-08T16:54:12.057Z,48.45
2022-12-08T16:56:44.009Z,56.38
2022-12-08T16:59:12.044Z,49.55
2022-12-08T17:01:40.631Z,73.15
2022-12-08T17:06:58.618Z,60.55
2022-12-08T17:09:26.885Z,56.05
2022-12-08T17:12:00.281Z,67.73
2022-12-08T17:14:34.484Z,57.33
2022-12-08T17:17:03.147Z,61.47
2022-12-08T17:19:32.691Z,69.20
2022-12-08T17:22:02.198Z,62.47
2022-12-08T17:24:31.181Z,71.32
2022-12-08T17:27:03.944Z,63.90
2022-12-08T17:29:32.248Z,51.65
2022-12-08T17:32:00.979Z,62.13
2022-12-08T17:34:29.116Z,55.87
2022-12-08T17:36:58.993Z,59.17
2022-12-08T17:39:27.062Z,55.65
2022-12-08T17:41:55.447Z,63.05
2022-12-08T17:44:23.850Z,64.03
2022-12-08T17:46:53.414Z,57.30
2022-12-08T17:49:24.889Z,53.25
2022-12-08T17:51:55.990Z,54.78
2022-12-08T17:54:26.804Z,51.80
2022-12-08T17:56:58.018Z,54.22
2022-12-08T17:59:27.520Z,47.15
2022-12-08T18:01:57.007Z,57.70
2022-12-08T18:04:26.305Z,57.30
2022-12-08T18:06:54.982Z,55.17
2022-12-08T18:09:23.142Z,58.33
2022-12-08T18:11:53.214Z,62.92
2022-12-08T18:14:21.505Z,62.92
2022-12-08T18:16:49.995Z,62.33
2022-12-08T18:19:18.159Z,74.30
2022-12-08T18:21:46.513Z,65.45
2022-12-08T18:24:19.374Z,68.72
2022-12-08T18:26:47.973Z,63.10
2022-12-08T18:29:17.607Z,64.97
2022-12-08T18:31:45.968Z,65.22
2022-12-08T18:34:14.214Z,77.70
2022-12-08T18:36:43.100Z,73.60
2022-12-08T18:39:23.092Z,85.95
2022-12-08T18:41:51.644Z,69.35
2022-12-08T18:44:21.412Z,71.90
2022-12-08T18:46:49.838Z,80.75
2022-12-08T18:49:19.950Z,69.05
2022-12-08T18:51:48.348Z,78.82
2022-12-08T18:54:16.638Z,82.53
2022-12-08T18:56:44.943Z,78.83
2022-12-08T18:59:13.977Z,70.00
2022-12-08T19:01:43.796Z,76.50
2022-12-08T19:04:28.660Z,79.13
2022-12-08T19:06:58.544Z,88.80
2022-12-08T19:09:28.954Z,74.70
2022-12-08T19:11:57.843Z,81.18
2022-12-08T19:14:28.502Z,74.20
2022-12-08T19:16:59.261Z,60.80
2022-12-08T19:19:28.465Z,60.30
2022-12-08T19:24:25.512Z,57.65
2022-12-08T19:26:56.367Z,54.47
2022-12-08T19:29:24.429Z,56.75
2022-12-08T19:31:52.947Z,50.35
2022-12-08T19:34:23.718Z,54.03
2022-12-08T19:36:52.683Z,50.97
2022-12-08T19:39:40.548Z,54.22
2022-12-08T19:42:33.468Z,52.83
2022-12-08T19:45:07.568Z,55.42
2022-12-08T19:47:35.962Z,58.85
2022-12-08T19:50:24.747Z,49.03
2022-12-08T19:52:53.835Z,58.75
2022-12-08T19:55:24.890Z,50.38
2022-12-08T19:57:53.736Z,52.15
2022-12-08T20:00:22.504Z,43.50
2022-12-08T20:02:52.575Z,42.22
2022-12-08T20:05:22.254Z,45.40
2022-12-08T20:07:50.820Z,42.70
2022-12-08T20:10:22.916Z,42.35
2022-12-08T20:12:51.282Z,45.97
2022-12-08T20:15:20.403Z,41.28
2022-12-08T20:20:16.799Z,44.47
2022-12-08T20:22:46.518Z,47.13
2022-12-08T20:25:17.093Z,58.53
2022-12-08T20:27:46.416Z,54.50
2022-12-08T20:30:17.418Z,56.90
2022-12-08T20:32:46.202Z,60.45
2022-12-08T20:35:15.388Z,58.42
2022-12-08T20:40:13.832Z,61.80
2022-12-08T20:42:42.186Z,57.75
2022-12-08T20:45:13.007Z,65.10
2022-12-08T20:47:41.419Z,59.03
2022-12-08T20:50:11.026Z,69.45
2022-12-08T20:52:39.882Z,67.68
2022-12-08T20:55:09.346Z,64.50
2022-12-08T20:57:39.225Z,63.60
2022-12-08T21:00:09.456Z,59.78
2022-12-08T21:02:45.073Z,64.28
2022-12-08T21:05:16.248Z,65.70
2022-12-08T21:07:45.336Z,64.32
2022-12-08T21:10:13.569Z,62.53
2022-12-08T21:12:43.595Z,64.40
2022-12-08T21:15:13.406Z,64.53
2022-12-08T21:17:42.237Z,58.42
2022-12-08T21:20:11.229Z,57.78
2022-12-08T21:22:40.401Z,68.47
2022-12-08T21:25:10.134Z,63.57
2022-12-08T21:27:39.720Z,67.47
2022-12-08T21:30:13.043Z,64.45
2022-12-08T21:32:41.719Z,63.80
2022-12-08T21:35:10.848Z,62.93
2022-12-08T21:37:39.684Z,61.63
2022-12-08T21:40:09.188Z,71.40
2022-12-08T21:42:47.295Z,58.38
2022-12-08T21:45:18.470Z,65.13
2022-12-08T21:47:48.213Z,60.47
2022-12-08T21:50:16.900Z,61.20
2022-12-08T21:52:46.877Z,57.63
2022-12-08T21:55:16.977Z,55.85
2022-12-08T21:57:45.679Z,62.85
2022-12-08T22:00:18.129Z,64.78
2022-12-08T22:02:46.936Z,54.72
2022-12-08T22:05:15.284Z,55.83
2022-12-08T22:07:43.940Z,51.78
2022-12-08T22:10:12.780Z,60.30
2022-12-08T22:12:41.821Z,47.58
2022-12-08T22:15:12.078Z,45.95
2022-12-08T22:17:44.554Z,47.97
2022-12-08T22:20:15.388Z,42.67
2022-12-08T22:22:44.319Z,46.47
2022-12-08T22:25:13.228Z,49.10
2022-12-08T22:30:12.167Z,52.60
2022-12-08T22:32:44.810Z,52.20
2022-12-08T22:35:13.149Z,61.65
2022-12-08T22:37:41.619Z,54.10
2022-12-08T22:40:12.305Z,52.60
2022-12-08T22:42:40.790Z,46.20
2022-12-08T22:45:10.968Z,44.63
2022-12-08T22:47:39.486Z,33.58
2022-12-08T22:50:10.277Z,40.88
2022-12-08T22:52:39.646Z,45.25
2022-12-08T22:55:08.934Z,44.30
2022-12-08T22:57:37.407Z,46.08
2022-12-08T23:00:07.482Z,43.15
2022-12-08T23:02:38.371Z,40.70
2022-12-08T23:05:09.100Z,40.83
2022-12-08T23:07:37.528Z,39.10
2022-12-08T23:10:07.314Z,36.25
2022-12-08T23:12:36.300Z,36.55
2022-12-08T23:15:06.631Z,36.92
2022-12-08T23:17:35.114Z,41.05
2022-12-08T23:20:03.440Z,41.58
2022-12-08T23:22:33.815Z,42.85
2022-12-08T23:25:01.905Z,35.42
2022-12-08T23:27:30.295Z,44.28
2022-12-08T23:29:58.619Z,48.38
2022-12-08T23:32:27.502Z,42.78
2022-12-08T23:34:55.711Z,45.90
2022-12-08T23:37:24.162Z,43.30
2022-12-08T23:39:54.157Z,41.55
2022-12-08T23:42:22.622Z,43.40
2022-12-08T23:44:50.908Z,44.13
2022-12-08T23:47:19.358Z,44.75
2022-12-08T23:49:47.482Z,41.80
2022-12-08T23:52:16.024Z,39.90
2022-12-08T23:54:44.907Z,41.22
2022-12-08T23:57:14.759Z,39.00
2022-12-08T23:59:43.108Z,40.80
